createdAt,value
2022-11-20T00:01:21.612Z,2.02
2022-11-20T00:03:48.444Z,2.10
2022-11-20T00:06:18.174Z,2.13
2022-11-20T00:08:45.247Z,2.16
2022-11-20T00:11:19.401Z,1.92
2022-11-20T00:13:47.967Z,2.01
2022-11-20T00:16:17.752Z,1.82
2022-11-20T00:18:45.140Z,1.83
2022-11-20T00:21:17.859Z,1.99
2022-11-20T00:23:45.344Z,1.87
2022-11-20T00:26:14.972Z,1.62
2022-11-20T00:28:43.221Z,1.82
2022-11-20T00:31:13.338Z,1.42
2022-11-20T00:33:44.477Z,1.39
2022-11-20T00:36:14.736Z,1.40
2022-11-20T00:38:42.148Z,1.33
2022-11-20T00:41:11.299Z,1.14
2022-11-20T00:43:38.951Z,1.08
2022-11-20T00:46:10.338Z,1.09
2022-11-20T00:48:37.499Z,1.36
2022-11-20T00:51:05.306Z,1.27
2022-11-20T00:53:32.441Z,1.16
2022-11-20T00:56:01.631Z,1.08
2022-11-20T00:58:36.918Z,1.20
2022-11-20T01:01:10.350Z,0.98
2022-11-20T01:03:40.293Z,1.06
2022-11-20T01:06:11.067Z,1.08
2022-11-20T01:08:38.293Z,1.17
2022-11-20T01:11:08.188Z,1.10
2022-11-20T01:13:36.616Z,1.06
2022-11-20T01:16:15.562Z,1.10
2022-11-20T01:18:45.257Z,1.13
2022-11-20T01:21:15.231Z,0.96
2022-11-20T01:23:44.417Z,0.97
2022-11-20T01:26:14.984Z,1.03
2022-11-20T01:28:42.690Z,1.01
2022-11-20T01:31:37.043Z,1.01
2022-11-20T01:34:06.906Z,1.13
2022-11-20T01:36:35.943Z,1.10
2022-11-20T01:39:07.195Z,1.09
2022-11-20T01:41:35.781Z,1.24
2022-11-20T01:44:04.567Z,1.07
2022-11-20T01:46:33.217Z,1.00
2022-11-20T01:49:25.437Z,1.07
2022-11-20T01:51:58.634Z,1.03
2022-11-20T01:54:46.687Z,1.08
2022-11-20T01:57:14.844Z,1.14
2022-11-20T01:59:48.971Z,0.94
2022-11-20T02:02:15.996Z,1.22
2022-11-20T02:04:42.680Z,1.23
2022-11-20T02:07:09.984Z,1.11
2022-11-20T02:09:36.608Z,1.03
2022-11-20T02:12:04.652Z,1.04
2022-11-20T02:14:31.608Z,1.14
2022-11-20T02:16:58.453Z,1.11
2022-11-20T02:19:30.864Z,1.12
2022-11-20T02:22:13.498Z,1.20
2022-11-20T02:24:42.500Z,1.28
2022-11-20T02:27:13.759Z,1.22
2022-11-20T02:29:50.140Z,1.20
2022-11-20T02:32:27.145Z,1.28
2022-11-20T02:34:54.345Z,1.19
2022-11-20T02:37:22.408Z,1.10
2022-11-20T02:39:52.085Z,1.08
2022-11-20T02:42:19.473Z,1.21
2022-11-20T02:44:46.092Z,1.21
2022-11-20T02:47:12.883Z,1.03
2022-11-20T02:49:39.641Z,1.08
2022-11-20T02:52:06.438Z,0.96
2022-11-20T02:54:33.117Z,1.00
2022-11-20T02:56:59.764Z,1.05
2022-11-20T02:59:26.355Z,1.02
2022-11-20T03:01:52.986Z,0.98
2022-11-20T03:04:19.702Z,0.96
2022-11-20T03:06:46.323Z,0.96
2022-11-20T03:09:13.311Z,1.01
2022-11-20T03:11:39.955Z,0.96
2022-11-20T03:14:06.792Z,1.01
2022-11-20T03:16:33.389Z,0.99
2022-11-20T03:19:00.983Z,1.05
2022-11-20T03:21:27.997Z,1.00
2022-11-20T03:23:55.808Z,0.98
2022-11-20T03:26:25.029Z,1.05
2022-11-20T03:28:57.096Z,1.19
2022-11-20T03:31:27.067Z,1.01
2022-11-20T03:33:54.162Z,0.96
2022-11-20T03:36:21.918Z,1.02
2022-11-20T03:38:49.613Z,0.95
2022-11-20T03:41:24.495Z,1.06
2022-11-20T03:43:53.409Z,1.20
2022-11-20T03:46:21.148Z,1.18
2022-11-20T03:48:51.902Z,1.13
2022-11-20T03:51:24.756Z,1.14
2022-11-20T03:53:53.841Z,1.25
2022-11-20T03:56:24.609Z,1.36
2022-11-20T03:58:53.340Z,1.35
2022-11-20T04:01:22.929Z,1.21
2022-11-20T04:03:50.284Z,1.17
2022-11-20T04:06:20.669Z,1.24
2022-11-20T04:08:53.329Z,1.16
2022-11-20T04:11:24.480Z,1.22
2022-11-20T04:14:15.908Z,1.34
2022-11-20T04:16:43.617Z,1.39
2022-11-20T04:19:13.481Z,1.36
2022-11-20T04:21:40.121Z,1.61
2022-11-20T04:24:07.648Z,1.40
2022-11-20T04:26:35.050Z,1.93
2022-11-20T04:29:01.936Z,1.75
2022-11-20T04:31:30.849Z,1.87
2022-11-20T04:34:04.901Z,2.08
2022-11-20T04:36:32.492Z,1.88
2022-11-20T04:39:01.834Z,1.83
2022-11-20T04:41:35.105Z,1.84
2022-11-20T04:44:03.990Z,1.88
2022-11-20T04:46:36.670Z,1.90
2022-11-20T04:49:03.841Z,1.83
2022-11-20T04:51:30.428Z,1.84
2022-11-20T04:53:57.164Z,2.03
2022-11-20T04:56:24.173Z,1.89
2022-11-20T04:58:51.430Z,2.00
2022-11-20T05:01:27.054Z,2.15
2022-11-20T05:03:53.713Z,2.03
2022-11-20T05:06:22.424Z,2.20
2022-11-20T05:08:49.651Z,2.20
2022-11-20T05:11:22.669Z,2.56
2022-11-20T05:13:50.636Z,2.22
2022-11-20T05:16:21.108Z,2.15
2022-11-20T05:18:48.561Z,2.51
2022-11-20T05:21:16.062Z,2.39
2022-11-20T05:23:44.495Z,2.26
2022-11-20T05:26:17.098Z,2.37
2022-11-20T05:28:44.613Z,2.63
2022-11-20T05:31:21.970Z,2.39
2022-11-20T05:33:50.512Z,2.38
2022-11-20T05:36:18.475Z,2.35
2022-11-20T05:38:47.985Z,2.44
2022-11-20T05:41:19.656Z,2.58
2022-11-20T05:43:48.933Z,2.54
2022-11-20T05:46:22.253Z,2.59
2022-11-20T05:48:51.634Z,2.72
2022-11-20T05:51:19.960Z,2.63
2022-11-20T05:53:48.686Z,2.59
2022-11-20T05:56:22.726Z,2.71
2022-11-20T05:58:50.144Z,2.86
2022-11-20T06:01:26.668Z,2.68
2022-11-20T06:03:54.703Z,2.90
2022-11-20T06:06:22.236Z,3.20
2022-11-20T06:08:49.495Z,3.17
2022-11-20T06:11:17.398Z,3.06
2022-11-20T06:13:44.450Z,2.94
2022-11-20T06:16:13.502Z,3.47
2022-11-20T06:18:40.176Z,3.31
2022-11-20T06:21:10.298Z,3.49
2022-11-20T06:23:38.157Z,3.47
2022-11-20T06:26:10.750Z,4.11
2022-11-20T06:28:37.705Z,3.88
2022-11-20T06:31:04.949Z,3.92
2022-11-20T06:33:31.592Z,3.97
2022-11-20T06:36:05.867Z,3.79
2022-11-20T06:38:35.752Z,3.90
2022-11-20T06:41:03.805Z,4.01
2022-11-20T06:43:30.748Z,4.53
2022-11-20T06:45:59.737Z,4.88
2022-11-20T06:48:30.473Z,5.50
2022-11-20T06:50:58.271Z,5.18
2022-11-20T06:53:25.902Z,5.29
2022-11-20T06:55:53.404Z,5.62
2022-11-20T06:58:20.002Z,5.55
2022-11-20T07:00:46.753Z,5.55
2022-11-20T07:03:13.560Z,5.21
2022-11-20T07:05:40.400Z,5.02
2022-11-20T07:08:07.201Z,5.31
2022-11-20T07:10:34.199Z,5.19
2022-11-20T07:13:00.822Z,5.41
2022-11-20T07:15:28.236Z,5.30
2022-11-20T07:17:54.952Z,5.11
2022-11-20T07:20:21.564Z,4.70
2022-11-20T07:22:54.039Z,4.87
2022-11-20T07:25:20.660Z,5.03
2022-11-20T07:27:47.312Z,4.70
2022-11-20T07:30:14.776Z,4.61
2022-11-20T07:32:41.443Z,4.68
2022-11-20T07:35:08.423Z,4.69
2022-11-20T07:37:36.033Z,4.61
2022-11-20T07:40:03.161Z,4.11
2022-11-20T07:42:29.747Z,3.88
2022-11-20T07:44:56.353Z,3.61
2022-11-20T07:47:22.982Z,3.54
2022-11-20T07:49:49.651Z,3.66
2022-11-20T07:52:16.343Z,3.54
2022-11-20T07:54:42.964Z,3.41
2022-11-20T07:57:09.596Z,2.75
2022-11-20T07:59:36.212Z,2.60
2022-11-20T08:02:02.872Z,2.85
2022-11-20T08:04:29.489Z,2.74
2022-11-20T08:06:56.104Z,2.88
2022-11-20T08:09:23.051Z,2.46
2022-11-20T08:11:49.873Z,2.41
2022-11-20T08:14:16.543Z,2.25
2022-11-20T08:16:46.593Z,2.43
2022-11-20T08:19:14.953Z,2.32
2022-11-20T08:21:41.961Z,2.43
2022-11-20T08:24:09.671Z,2.75
2022-11-20T08:26:38.487Z,2.09
2022-11-20T08:29:06.189Z,2.35
2022-11-20T08:31:33.388Z,2.20
2022-11-20T08:33:59.997Z,2.72
2022-11-20T08:36:26.748Z,3.31
2022-11-20T08:38:55.760Z,3.57
2022-11-20T08:41:23.006Z,2.93
2022-11-20T08:43:50.008Z,3.47
2022-11-20T08:46:16.766Z,3.39
2022-11-20T08:48:44.066Z,3.36
2022-11-20T08:51:11.909Z,3.65
2022-11-20T08:53:40.710Z,3.52
2022-11-20T08:56:07.777Z,3.38
2022-11-20T08:58:55.039Z,3.22
2022-11-20T09:01:23.479Z,3.22
2022-11-20T09:03:50.317Z,3.36
2022-11-20T09:06:17.930Z,3.78
2022-11-20T09:08:44.941Z,4.07
2022-11-20T09:11:11.748Z,3.85
2022-11-20T09:13:38.510Z,4.38
2022-11-20T09:16:09.867Z,3.91
2022-11-20T09:18:37.750Z,3.89
2022-11-20T09:21:08.154Z,3.53
2022-11-20T09:23:37.313Z,3.42
2022-11-20T09:26:12.292Z,3.22
2022-11-20T09:28:39.854Z,3.07
2022-11-20T09:31:19.807Z,3.26
2022-11-20T09:33:46.480Z,2.79
2022-11-20T09:36:13.064Z,2.50
2022-11-20T09:38:39.676Z,2.31
2022-11-20T09:41:07.616Z,2.32
2022-11-20T09:43:50.952Z,2.05
2022-11-20T09:46:39.716Z,2.02
2022-11-20T09:49:32.420Z,1.96
2022-11-20T09:52:05.757Z,1.55
2022-11-20T09:54:38.099Z,1.59
2022-11-20T09:57:13.371Z,1.55
2022-11-20T09:59:46.833Z,1.53
2022-11-20T10:02:17.147Z,1.52
2022-11-20T10:04:53.658Z,1.22
2022-11-20T10:07:33.398Z,1.29
2022-11-20T10:10:00.913Z,1.22
2022-11-20T10:13:06.240Z,1.19
2022-11-20T10:15:54.359Z,1.40
2022-11-20T10:18:42.669Z,1.42
2022-11-20T10:21:24.041Z,1.41
2022-11-20T10:24:09.353Z,1.41
2022-11-20T10:26:51.862Z,1.34
2022-11-20T10:29:28.192Z,1.49
2022-11-20T10:32:05.243Z,1.39
2022-11-20T10:34:38.443Z,1.34
2022-11-20T10:37:18.908Z,1.43
2022-11-20T10:39:56.146Z,1.26
2022-11-20T10:42:50.796Z,1.47
2022-11-20T10:45:26.552Z,1.31
2022-11-20T10:48:08.997Z,1.39
2022-11-20T10:50:41.239Z,1.64
2022-11-20T10:53:28.856Z,1.46
2022-11-20T10:56:05.276Z,1.65
2022-11-20T10:58:59.993Z,1.68
2022-11-20T11:01:26.769Z,1.77
2022-11-20T11:03:55.909Z,3.75
2022-11-20T11:06:47.677Z,11.68
2022-11-20T11:09:28.824Z,9.95
2022-11-20T11:11:55.429Z,10.72
2022-11-20T11:14:22.069Z,3.27
2022-11-20T11:16:57.420Z,3.83
2022-11-20T11:19:25.308Z,1.86
2022-11-20T11:21:57.864Z,1.43
2022-11-20T11:24:42.219Z,1.49
2022-11-20T11:27:17.678Z,1.39
2022-11-20T11:29:45.406Z,1.46
2022-11-20T11:32:19.188Z,1.38
2022-11-20T11:34:46.150Z,1.51
2022-11-20T11:37:22.254Z,1.54
2022-11-20T11:40:03.984Z,1.62
2022-11-20T11:42:43.736Z,1.90
2022-11-20T11:45:16.649Z,1.44
2022-11-20T11:47:43.229Z,4.57
2022-11-20T11:50:09.831Z,3.61
2022-11-20T11:52:46.139Z,7.01
2022-11-20T11:55:30.977Z,10.65
2022-11-20T11:58:09.375Z,5.04
2022-11-20T12:00:41.968Z,2.40
2022-11-20T12:03:35.480Z,3.01
2022-11-20T12:06:13.702Z,1.71
2022-11-20T12:08:54.716Z,3.36
2022-11-20T12:11:46.893Z,2.38
2022-11-20T12:14:23.268Z,1.53
2022-11-20T12:16:49.859Z,1.42
2022-11-20T12:19:16.508Z,1.39
2022-11-20T12:22:33.806Z,1.13
2022-11-20T12:25:06.206Z,0.85
2022-11-20T12:27:50.907Z,1.41
2022-11-20T12:30:20.037Z,1.19
2022-11-20T12:33:31.475Z,1.16
2022-11-20T12:36:43.579Z,1.07
2022-11-20T12:39:29.542Z,0.99
2022-11-20T12:42:28.450Z,1.05
2022-11-20T12:45:19.951Z,0.96
2022-11-20T12:48:08.150Z,0.97
2022-11-20T12:51:08.233Z,1.14
2022-11-20T12:53:56.041Z,1.30
2022-11-20T12:56:22.569Z,1.33
2022-11-20T12:59:13.748Z,1.35
2022-11-20T13:03:57.114Z,1.38
2022-11-20T13:06:27.069Z,1.34
2022-11-20T13:08:56.666Z,1.56
2022-11-20T13:11:32.314Z,1.28
2022-11-20T13:14:17.103Z,1.46
2022-11-20T13:17:24.609Z,1.39
2022-11-20T13:19:55.897Z,1.25
2022-11-20T13:22:30.277Z,1.10
2022-11-20T13:24:57.144Z,1.10
2022-11-20T13:27:25.160Z,1.16
2022-11-20T13:30:16.786Z,1.03
2022-11-20T13:32:55.903Z,1.18
2022-11-20T13:35:32.772Z,1.01
2022-11-20T13:38:05.383Z,1.21
2022-11-20T13:40:32.512Z,1.01
2022-11-20T13:43:05.028Z,1.01
2022-11-20T13:45:33.581Z,0.94
2022-11-20T13:48:19.927Z,1.09
2022-11-20T13:51:09.812Z,1.03
2022-11-20T13:53:54.353Z,0.83
2022-11-20T13:57:03.209Z,0.92
2022-11-20T13:59:39.916Z,1.11
2022-11-20T14:02:16.608Z,1.11
2022-11-20T14:04:50.971Z,1.21
2022-11-20T14:07:21.427Z,1.05
2022-11-20T14:09:57.128Z,0.92
2022-11-20T14:12:30.626Z,1.02
2022-11-20T14:14:57.587Z,1.05
2022-11-20T14:17:33.964Z,1.00
2022-11-20T14:20:15.735Z,1.12
2022-11-20T14:22:49.922Z,1.11
2022-11-20T14:25:16.511Z,1.04
2022-11-20T14:27:49.722Z,0.88
2022-11-20T14:30:26.380Z,0.97
2022-11-20T14:32:58.715Z,0.98
2022-11-20T14:35:28.833Z,1.12
2022-11-20T14:37:57.075Z,1.00
2022-11-20T14:40:33.744Z,1.13
2022-11-20T14:43:00.712Z,1.26
2022-11-20T14:45:28.305Z,1.19
2022-11-20T14:47:58.320Z,1.10
2022-11-20T14:50:28.416Z,1.28
2022-11-20T14:53:00.188Z,1.38
2022-11-20T14:55:36.506Z,1.41
2022-11-20T14:58:06.740Z,1.53
2022-11-20T15:00:35.718Z,1.64
2022-11-20T15:03:02.342Z,1.79
2022-11-20T15:05:49.173Z,1.92
2022-11-20T15:08:17.701Z,3.31
2022-11-20T15:10:50.824Z,2.74
2022-11-20T15:13:24.873Z,2.16
2022-11-20T15:15:54.542Z,2.16
2022-11-20T15:18:29.349Z,2.07
2022-11-20T15:20:58.872Z,1.89
2022-11-20T15:23:28.841Z,1.61
2022-11-20T15:25:57.013Z,1.69
2022-11-20T15:28:42.284Z,2.00
2022-11-20T15:31:14.720Z,1.71
2022-11-20T15:33:44.119Z,1.62
2022-11-20T15:36:10.875Z,1.57
2022-11-20T15:38:38.212Z,1.61
2022-11-20T15:41:05.793Z,1.57
2022-11-20T15:43:32.684Z,1.35
2022-11-20T15:46:13.719Z,1.35
2022-11-20T15:48:48.859Z,1.64
2022-11-20T15:51:15.492Z,1.69
2022-11-20T15:53:43.072Z,1.63
2022-11-20T15:56:13.998Z,1.72
2022-11-20T15:58:41.548Z,1.81
2022-11-20T16:01:17.332Z,2.06
2022-11-20T16:03:44.265Z,2.24
2022-11-20T16:06:11.012Z,1.92
2022-11-20T16:08:37.690Z,1.51
2022-11-20T16:11:05.105Z,1.59
2022-11-20T16:13:33.106Z,1.77
2022-11-20T16:16:03.457Z,1.67
2022-11-20T16:18:30.054Z,1.74
2022-11-20T16:20:56.637Z,1.51
2022-11-20T16:23:23.409Z,1.60
2022-11-20T16:25:51.336Z,1.75
2022-11-20T16:28:19.514Z,1.63
2022-11-20T16:30:47.170Z,1.84
2022-11-20T16:33:17.191Z,1.92
2022-11-20T16:35:44.369Z,1.85
2022-11-20T16:38:11.213Z,2.00
2022-11-20T16:40:37.808Z,2.26
2022-11-20T16:43:13.937Z,2.13
2022-11-20T16:45:45.160Z,2.00
2022-11-20T16:48:17.568Z,1.90
2022-11-20T16:50:50.526Z,1.84
2022-11-20T16:53:20.074Z,1.80
2022-11-20T16:55:47.199Z,1.76
2022-11-20T16:58:16.127Z,1.69
2022-11-20T17:00:48.290Z,1.56
2022-11-20T17:03:16.777Z,1.44
2022-11-20T17:05:43.363Z,1.50
2022-11-20T17:08:10.093Z,1.62
2022-11-20T17:10:36.723Z,1.48
2022-11-20T17:13:03.309Z,1.57
2022-11-20T17:15:31.001Z,1.61
2022-11-20T17:17:59.881Z,1.88
2022-11-20T17:20:26.542Z,1.84
2022-11-20T17:22:53.159Z,1.75
2022-11-20T17:25:19.829Z,1.94
2022-11-20T17:27:46.428Z,2.23
2022-11-20T17:30:13.115Z,2.41
2022-11-20T17:32:39.722Z,2.39
2022-11-20T17:35:06.550Z,2.33
2022-11-20T17:37:33.183Z,2.31
2022-11-20T17:39:59.808Z,2.27
2022-11-20T17:42:27.448Z,2.37
2022-11-20T17:44:54.166Z,2.26
2022-11-20T17:47:20.740Z,2.41
2022-11-20T17:49:47.544Z,2.29
2022-11-20T17:52:15.172Z,2.28
2022-11-20T17:54:41.796Z,2.35
2022-11-20T17:57:09.630Z,2.36
2022-11-20T17:59:37.770Z,2.56
2022-11-20T18:02:04.407Z,2.59
2022-11-20T18:04:31.125Z,2.27
2022-11-20T18:06:57.738Z,2.08
2022-11-20T18:09:24.330Z,1.92
2022-11-20T18:11:50.968Z,1.85
2022-11-20T18:14:18.196Z,1.96
2022-11-20T18:16:46.385Z,1.84
2022-11-20T18:19:17.003Z,1.91
2022-11-20T18:21:43.653Z,1.13
2022-11-20T18:24:11.139Z,1.00
2022-11-20T18:26:43.881Z,0.77
2022-11-20T18:29:12.413Z,1.47
2022-11-20T18:31:39.202Z,1.35
2022-11-20T18:34:06.449Z,2.90
2022-11-20T18:36:33.120Z,2.42
2022-11-20T18:39:00.808Z,2.72
2022-11-20T18:41:29.865Z,2.66
2022-11-20T18:43:56.759Z,3.00
2022-11-20T18:46:23.370Z,4.61
2022-11-20T18:48:50.050Z,3.62
2022-11-20T18:51:16.656Z,5.57
2022-11-20T18:53:47.317Z,3.03
2022-11-20T18:56:14.454Z,2.89
2022-11-20T18:58:41.125Z,3.24
2022-11-20T19:01:08.496Z,3.20
2022-11-20T19:03:35.185Z,4.76
2022-11-20T19:06:02.005Z,2.96
2022-11-20T19:08:28.815Z,2.53
2022-11-20T19:10:55.720Z,3.13
2022-11-20T19:13:22.343Z,3.81
2022-11-20T19:15:49.074Z,3.78
2022-11-20T19:18:15.683Z,3.35
2022-11-20T19:20:42.284Z,2.46
2022-11-20T19:23:08.896Z,3.37
2022-11-20T19:25:38.367Z,4.35
2022-11-20T19:28:05.488Z,4.47
2022-11-20T19:30:32.983Z,2.57
2022-11-20T19:32:59.598Z,2.48
2022-11-20T19:35:26.228Z,2.30
2022-11-20T19:37:53.285Z,2.35
2022-11-20T19:40:19.870Z,2.19
2022-11-20T19:42:46.454Z,3.22
2022-11-20T19:45:13.025Z,3.38
2022-11-20T19:48:06.730Z,2.34
2022-11-20T19:50:26.216Z,2.15
2022-11-20T19:52:57.333Z,1.93
2022-11-20T19:55:25.310Z,2.05
2022-11-20T19:57:52.140Z,2.15
2022-11-20T20:00:25.631Z,2.33
2022-11-20T20:02:57.617Z,2.68
2022-11-20T20:05:24.270Z,2.51
2022-11-20T20:07:50.895Z,2.61
2022-11-20T20:10:17.520Z,2.69
2022-11-20T20:12:44.137Z,2.59
2022-11-20T20:15:13.464Z,2.51
2022-11-20T20:17:40.065Z,2.34
2022-11-20T20:20:07.072Z,2.32
2022-11-20T20:22:33.644Z,2.38
2022-11-20T20:25:03.468Z,2.30
2022-11-20T20:27:31.304Z,2.57
2022-11-20T20:29:57.872Z,2.26
2022-11-20T20:32:24.930Z,2.17
2022-11-20T20:34:51.631Z,2.36
2022-11-20T20:37:18.229Z,2.26
2022-11-20T20:39:44.848Z,2.17
2022-11-20T20:42:11.453Z,2.29
2022-11-20T20:44:38.059Z,2.46
2022-11-20T20:47:05.065Z,2.32
2022-11-20T20:49:33.308Z,2.53
2022-11-20T20:52:00.929Z,2.53
2022-11-20T20:54:30.307Z,2.37
2022-11-20T20:57:00.772Z,2.63
2022-11-20T20:59:27.368Z,2.68
2022-11-20T21:01:54.075Z,2.62
2022-11-20T21:04:20.723Z,2.61
2022-11-20T21:06:47.325Z,2.88
2022-11-20T21:09:13.948Z,2.89
2022-11-20T21:11:40.517Z,2.88
2022-11-20T21:14:07.225Z,2.96
2022-11-20T21:16:33.829Z,3.10
2022-11-20T21:19:00.444Z,3.15
2022-11-20T21:21:27.059Z,2.80
2022-11-20T21:23:53.860Z,3.00
2022-11-20T21:26:21.628Z,2.82
2022-11-20T21:28:49.317Z,2.65
2022-11-20T21:31:20.308Z,2.78
2022-11-20T21:33:49.308Z,2.68
2022-11-20T21:36:18.525Z,2.53
2022-11-20T21:38:46.730Z,2.61
2022-11-20T21:41:15.125Z,2.58
2022-11-20T21:43:42.228Z,2.56
2022-11-20T21:46:14.611Z,2.64
2022-11-20T21:48:43.473Z,2.65
2022-11-20T21:51:18.705Z,4.74
2022-11-20T21:53:47.217Z,2.89
2022-11-20T21:56:20.336Z,2.67
2022-11-20T21:58:48.885Z,2.99
2022-11-20T22:01:17.015Z,2.46
2022-11-20T22:03:48.784Z,4.43
2022-11-20T22:06:16.492Z,2.56
2022-11-20T22:08:43.115Z,2.28
2022-11-20T22:11:14.733Z,2.16
2022-11-20T22:13:42.233Z,2.53
2022-11-20T22:16:09.554Z,2.43
2022-11-20T22:18:36.516Z,2.46
2022-11-20T22:21:05.168Z,2.46
2022-11-20T22:23:31.872Z,2.30
2022-11-20T22:26:06.606Z,2.48
2022-11-20T22:28:34.812Z,2.67
2022-11-20T22:31:03.648Z,2.65
2022-11-20T22:33:31.791Z,2.43
2022-11-20T22:36:07.218Z,2.70
2022-11-20T22:38:39.040Z,2.50
2022-11-20T22:41:13.157Z,2.52
2022-11-20T22:43:41.305Z,2.45
2022-11-20T22:46:15.822Z,2.40
2022-11-20T22:48:45.108Z,2.19
2022-11-20T22:51:14.400Z,2.52
2022-11-20T22:53:42.901Z,2.53
2022-11-20T22:56:11.848Z,2.50
2022-11-20T22:58:40.430Z,2.48
2022-11-20T23:01:16.036Z,2.29
2022-11-20T23:03:45.970Z,2.22
2022-11-20T23:06:13.084Z,2.05
2022-11-20T23:08:41.348Z,2.40
2022-11-20T23:11:11.280Z,2.20
2022-11-20T23:13:38.865Z,2.12
2022-11-20T23:16:17.030Z,1.97
2022-11-20T23:18:44.828Z,2.07
2022-11-20T23:21:14.594Z,2.24
2022-11-20T23:23:42.083Z,2.12
2022-11-20T23:26:11.988Z,1.81
2022-11-20T23:28:40.338Z,1.94
2022-11-20T23:31:08.630Z,1.64
2022-11-20T23:33:36.552Z,1.72
2022-11-20T23:36:03.969Z,1.84
2022-11-20T23:38:30.632Z,1.74
2022-11-20T23:40:57.385Z,1.73
2022-11-20T23:43:24.820Z,1.88
2022-11-20T23:45:54.309Z,1.95
2022-11-20T23:48:22.881Z,1.77
2022-11-20T23:50:49.935Z,1.96
2022-11-20T23:53:17.885Z,1.84
2022-11-20T23:55:53.649Z,1.79
2022-11-20T23:58:22.088Z,2.19
